Time;durP1;ratioP1;P1;durP2;ratioP2;P2;SDS_P1;SDS_P2;PMS_P1;PMS_P2;Temp;Humidity;BMP_temperature;BMP_pressure;BME280_temperature;BME280_humidity;BME280_pressure;Samples;Min_cycle;Max_cycle;Signal;HPM_P1;HPM_P2
2023/09/12 00:01:32;;;;;;;15.43;9.83;;;;;;;22.31;55.19;95954.19;4968764;28;20169;-71
2023/09/12 00:03:58;;;;;;;14.03;9.40;;;;;;;22.29;55.48;95953.50;4968232;28;20464;-71
2023/09/12 00:06:23;;;;;;;10.87;9.50;;;;;;;22.33;55.18;95949.53;4970779;28;20492;-71
2023/09/12 00:08:48;;;;;;;19.80;10.30;;;;;;;22.24;55.59;95946.94;4968385;28;20184;-71
2023/09/12 00:11:14;;;;;;;16.03;10.17;;;;;;;22.26;55.48;95942.28;4968716;28;20171;-70
2023/09/12 00:13:41;;;;;;;15.13;9.67;;;;;;;22.39;55.17;95935.56;4968422;28;20178;-70
2023/09/12 00:16:07;;;;;;;16.70;10.27;;;;;;;22.22;55.47;95928.34;4968146;28;20190;-70
2023/09/12 00:18:35;;;;;;;12.83;9.80;;;;;;;22.09;55.81;95933.22;4968141;28;20861;-70
2023/09/12 00:21:01;;;;;;;13.77;9.40;;;;;;;22.26;55.22;95926.25;4968433;28;20667;-71
2023/09/12 00:23:27;;;;;;;16.47;9.77;;;;;;;22.06;56.13;95926.31;4967983;28;20534;-70
2023/09/12 00:25:52;;;;;;;14.50;9.30;;;;;;;21.97;56.05;95919.22;4968392;28;20185;-71
2023/09/12 00:28:19;;;;;;;11.63;9.17;;;;;;;22.06;55.95;95917.47;4968339;28;20285;-71
2023/09/12 00:30:45;;;;;;;16.77;10.33;;;;;;;22.16;55.52;95919.09;4968092;28;20272;-71
2023/09/12 00:33:10;;;;;;;16.23;10.77;;;;;;;22.16;55.10;95916.41;4967974;28;20421;-70
2023/09/12 00:35:36;;;;;;;15.23;9.57;;;;;;;22.27;54.88;95917.22;4966693;28;20174;-70
2023/09/12 00:38:01;;;;;;;11.37;9.77;;;;;;;22.24;54.82;95922.88;4967831;28;20646;-70
2023/09/12 00:40:26;;;;;;;13.50;9.50;;;;;;;22.33;54.52;95916.63;4968083;28;20170;-70
2023/09/12 00:42:52;;;;;;;21.13;10.37;;;;;;;22.27;54.71;95918.06;4967808;28;20265;-70
2023/09/12 00:45:17;;;;;;;16.40;10.30;;;;;;;22.07;54.90;95920.00;4967922;28;21008;-71
2023/09/12 00:47:43;;;;;;;21.83;9.83;;;;;;;22.07;54.89;95911.97;4968094;28;20209;-70
2023/09/12 00:50:09;;;;;;;17.40;9.83;;;;;;;22.10;54.87;95914.34;4967821;28;20184;-71
2023/09/12 00:52:36;;;;;;;15.90;10.63;;;;;;;22.14;54.84;95909.53;4968119;28;20406;-70
2023/09/12 00:55:02;;;;;;;11.93;9.67;;;;;;;22.11;55.03;95905.34;4967497;28;20416;-70
2023/09/12 00:57:28;;;;;;;18.90;9.77;;;;;;;22.06;55.31;95904.94;4967694;28;20437;-70
2023/09/12 00:59:55;;;;;;;23.73;10.00;;;;;;;22.01;55.18;95904.53;4967794;28;20496;-71
2023/09/12 01:02:21;;;;;;;13.97;9.90;;;;;;;21.99;55.43;95902.03;4967573;28;20424;-70
2023/09/12 01:04:47;;;;;;;15.70;9.20;;;;;;;21.97;55.39;95911.19;4967518;28;20456;-70
2023/09/12 01:07:13;;;;;;;20.10;9.67;;;;;;;21.85;55.69;95913.25;4968201;28;20552;-71
2023/09/12 01:09:40;;;;;;;15.83;9.80;;;;;;;21.76;55.94;95908.78;4968241;28;20413;-71
2023/09/12 01:12:06;;;;;;;16.13;9.80;;;;;;;21.76;55.80;95908.78;4968005;28;20205;-71
2023/09/12 01:14:31;;;;;;;12.40;9.13;;;;;;;21.82;55.75;95918.84;4967568;28;20481;-70
2023/09/12 01:16:58;;;;;;;13.73;10.33;;;;;;;21.64;56.07;95920.63;4967904;28;20205;-71
2023/09/12 01:19:23;;;;;;;14.73;8.67;;;;;;;21.55;56.09;95917.03;4967814;28;20178;-70
2023/09/12 01:22:07;;;;;;;12.37;9.30;;;;;;;21.62;55.83;95920.78;4967351;28;20428;-70
2023/09/12 01:25:03;;;;;;;16.97;9.30;;;;;;;21.65;55.89;95916.97;4967468;28;20229;-72
2023/09/12 01:27:46;;;;;;;17.27;9.90;;;;;;;21.60;55.89;95911.25;4965323;28;20456;-71
2023/09/12 01:30:12;;;;;;;12.57;9.70;;;;;;;21.42;56.50;95924.50;4965512;28;20649;-70
2023/09/12 01:32:39;;;;;;;15.50;9.70;;;;;;;21.55;56.11;95928.53;4971570;28;20424;-70
2023/09/12 01:35:05;;;;;;;16.07;9.90;;;;;;;21.66;55.74;95929.34;4971310;28;20308;-71
2023/09/12 01:37:31;;;;;;;11.43;9.03;;;;;;;21.60;55.89;95925.44;4978896;28;20460;-72
2023/09/12 01:39:57;;;;;;;19.07;9.70;;;;;;;21.61;55.62;95932.44;4984476;28;20184;-71
2023/09/12 01:42:23;;;;;;;18.47;9.93;;;;;;;21.43;56.38;95929.72;4977596;28;20421;-71
2023/09/12 01:44:56;;;;;;;14.70;9.53;;;;;;;21.50;55.96;95929.97;4974308;28;20220;-72
2023/09/12 01:47:23;;;;;;;24.83;10.50;;;;;;;21.53;55.87;95925.19;4973480;28;20629;-71
2023/09/12 01:49:52;;;;;;;17.70;10.43;;;;;;;21.60;55.88;95929.94;4970254;28;20496;-70
2023/09/12 01:52:19;;;;;;;16.67;9.50;;;;;;;21.42;56.06;95935.19;4971007;28;20445;-70
2023/09/12 01:54:44;;;;;;;9.80;8.70;;;;;;;21.47;56.24;95930.25;4970756;28;21302;-71
2023/09/12 01:57:10;;;;;;;14.53;9.00;;;;;;;21.43;56.24;95935.06;4970984;28;20444;-70
2023/09/12 01:59:36;;;;;;;14.57;9.70;;;;;;;21.49;56.32;95928.28;4970894;28;20181;-71
2023/09/12 02:02:02;;;;;;;14.23;9.20;;;;;;;21.44;56.42;95931.38;4970821;28;21049;-71
2023/09/12 02:04:27;;;;;;;13.73;8.30;;;;;;;21.41;56.65;95930.84;4970550;28;20749;-70
2023/09/12 02:06:52;;;;;;;15.90;9.40;;;;;;;21.32;56.65;95938.69;4970838;28;20201;-71
2023/09/12 02:09:18;;;;;;;14.83;8.83;;;;;;;21.36;56.60;95941.94;4970721;28;20180;-71
2023/09/12 02:11:43;;;;;;;15.47;9.10;;;;;;;21.35;56.91;95945.56;4970849;28;20184;-71
2023/09/12 02:14:10;;;;;;;13.83;9.30;;;;;;;21.26;57.22;95949.09;4970252;28;20188;-70
2023/09/12 02:16:37;;;;;;;21.13;10.17;;;;;;;21.21;57.37;95946.03;4970486;28;20280;-70
2023/09/12 02:19:03;;;;;;;15.87;9.40;;;;;;;21.18;57.38;95946.31;4970362;28;20942;-70
2023/09/12 02:21:28;;;;;;;12.50;8.53;;;;;;;21.16;57.31;95946.47;4970506;28;20409;-71
2023/09/12 02:23:54;;;;;;;21.63;10.47;;;;;;;21.20;57.18;95945.19;4969957;28;21047;-70
2023/09/12 02:26:19;;;;;;;11.63;9.67;;;;;;;21.18;57.43;95947.16;4970187;28;20189;-70
2023/09/12 02:28:45;;;;;;;12.40;10.37;;;;;;;21.16;57.44;95949.13;4970113;28;20276;-70
2023/09/12 02:31:11;;;;;;;15.37;9.67;;;;;;;21.12;57.44;95951.25;4970241;28;20178;-70
2023/09/12 02:33:38;;;;;;;13.90;9.50;;;;;;;21.15;57.37;95948.28;4969636;28;20413;-70
2023/09/12 02:36:04;;;;;;;12.90;9.70;;;;;;;21.16;57.08;95949.13;4970246;28;21276;-70
2023/09/12 02:38:29;;;;;;;15.93;10.70;;;;;;;21.10;57.32;95947.06;4970027;28;20417;-70
2023/09/12 02:40:55;;;;;;;10.90;9.23;;;;;;;21.01;57.75;95946.06;4969508;28;20413;-70
2023/09/12 02:43:21;;;;;;;13.50;10.63;;;;;;;21.12;57.21;95939.75;4969052;28;20595;-70
2023/09/12 02:45:46;;;;;;;18.07;10.20;;;;;;;21.09;57.23;95938.19;4969932;28;20416;-70
2023/09/12 02:48:12;;;;;;;12.43;8.70;;;;;;;21.17;57.14;95939.31;4969980;28;20197;-71
2023/09/12 02:50:37;;;;;;;11.83;9.80;;;;;;;21.08;57.45;95935.69;4970233;28;20549;-70
2023/09/12 02:53:03;;;;;;;16.97;10.00;;;;;;;20.99;57.48;95945.38;4970003;28;20174;-71
2023/09/12 02:55:28;;;;;;;15.93;9.10;;;;;;;20.99;57.73;95936.53;4970231;28;20173;-71
2023/09/12 02:57:54;;;;;;;14.47;9.70;;;;;;;20.96;57.87;95936.84;4970107;28;20205;-70
2023/09/12 03:00:19;;;;;;;15.50;9.23;;;;;;;21.00;57.68;95933.75;4970047;28;20181;-71
2023/09/12 03:02:45;;;;;;;13.33;9.37;;;;;;;20.93;58.01;95935.28;4970025;28;20185;-70
2023/09/12 03:05:10;;;;;;;15.47;9.73;;;;;;;20.92;58.08;95934.44;4969501;28;20233;-70
2023/09/12 03:07:36;;;;;;;14.70;8.93;;;;;;;20.90;58.06;95917.72;4969848;28;20241;-71
2023/09/12 03:10:01;;;;;;;11.90;9.13;;;;;;;20.84;58.23;95920.16;4969847;28;20798;-72
2023/09/12 03:12:27;;;;;;;13.70;9.50;;;;;;;20.85;58.13;95924.47;4969625;28;20173;-70
2023/09/12 03:14:52;;;;;;;12.83;9.90;;;;;;;20.70;58.86;95922.25;4969461;28;20204;-70
2023/09/12 03:17:18;;;;;;;14.70;10.13;;;;;;;20.80;58.87;95922.22;4969567;28;20338;-71
2023/09/12 03:19:43;;;;;;;12.13;10.10;;;;;;;20.64;59.32;95929.97;4969687;28;20256;-70
2023/09/12 03:22:09;;;;;;;15.20;10.63;;;;;;;20.66;59.10;95917.34;4969536;28;20174;-70
2023/09/12 03:24:34;;;;;;;12.07;10.03;;;;;;;20.59;59.14;95924.22;4969014;28;20668;-71
2023/09/12 03:27:00;;;;;;;17.23;10.37;;;;;;;20.56;59.21;95924.50;4969278;28;20208;-69
2023/09/12 03:29:25;;;;;;;12.23;9.07;;;;;;;20.57;59.18;95920.84;4969094;28;20229;-70
2023/09/12 03:31:50;;;;;;;17.23;10.37;;;;;;;20.47;59.20;95919.00;4968647;28;20185;-71
2023/09/12 03:34:16;;;;;;;14.33;9.57;;;;;;;20.48;59.17;95912.69;4969060;28;20273;-71
2023/09/12 03:36:41;;;;;;;15.83;10.57;;;;;;;20.45;59.45;95902.28;4969051;28;20194;-71
2023/09/12 03:39:08;;;;;;;12.30;9.33;;;;;;;20.36;59.76;95908.47;4969097;28;20260;-71
2023/09/12 03:41:35;;;;;;;11.80;9.80;;;;;;;20.41;59.52;95906.25;4965275;28;20182;-69
2023/09/12 03:44:00;;;;;;;10.10;9.10;;;;;;;20.45;59.43;95902.28;4966210;28;20468;-71
2023/09/12 03:46:26;;;;;;;12.17;10.83;;;;;;;20.39;59.92;95907.38;4967245;28;20535;-70
2023/09/12 03:48:51;;;;;;;13.63;10.07;;;;;;;20.36;59.77;95902.28;4967220;28;20188;-71
2023/09/12 03:51:17;;;;;;;19.43;10.37;;;;;;;20.31;60.08;95902.72;4968399;28;20181;-70
2023/09/12 03:53:42;;;;;;;16.43;10.77;;;;;;;20.27;59.84;95904.00;4968325;28;20538;-70
2023/09/12 03:56:10;;;;;;;13.00;9.93;;;;;;;20.39;60.00;95907.38;4968456;28;20651;-71
2023/09/12 03:58:35;;;;;;;14.70;10.00;;;;;;;20.31;59.91;95905.38;4968333;28;20257;-71
2023/09/12 04:01:00;;;;;;;20.13;10.33;;;;;;;20.21;60.37;95909.88;4968633;28;20519;-71
2023/09/12 04:03:26;;;;;;;12.57;10.43;;;;;;;20.32;60.32;95912.41;4968392;28;20256;-71
2023/09/12 04:05:51;;;;;;;11.87;10.43;;;;;;;20.21;60.63;95904.53;4968296;28;20182;-71
2023/09/12 04:08:17;;;;;;;17.40;10.97;;;;;;;20.23;60.57;95903.41;4968413;28;20812;-70
2023/09/12 04:10:43;;;;;;;16.93;10.60;;;;;;;20.19;60.81;95912.66;4968503;28;20182;-70
2023/09/12 04:13:08;;;;;;;20.07;11.27;;;;;;;20.19;60.71;95915.31;4968015;28;20272;-71
2023/09/12 04:15:33;;;;;;;13.17;10.87;;;;;;;20.29;60.25;95923.31;4966381;28;20444;-71
2023/09/12 04:17:59;;;;;;;18.17;10.73;;;;;;;20.20;60.54;95913.53;4968225;28;20205;-71
2023/09/12 04:20:24;;;;;;;19.87;10.80;;;;;;;20.29;60.09;95915.31;4968569;28;20177;-72
2023/09/12 04:22:50;;;;;;;18.83;10.60;;;;;;;20.25;60.17;95913.94;4968368;28;20189;-71
2023/09/12 04:25:15;;;;;;;18.20;10.27;;;;;;;20.06;60.66;95918.25;4967625;28;20819;-70
2023/09/12 04:27:41;;;;;;;17.43;10.50;;;;;;;20.13;61.13;95931.88;4965662;28;20228;-72
2023/09/12 04:30:08;;;;;;;15.57;11.63;;;;;;;20.08;61.02;95928.78;4963848;28;20170;-70
2023/09/12 04:32:33;;;;;;;14.60;11.00;;;;;;;19.99;61.26;95935.78;4963792;28;20440;-69
2023/09/12 04:34:59;;;;;;;15.43;11.23;;;;;;;19.91;61.70;95938.25;4965539;28;20424;-70
2023/09/12 04:37:25;;;;;;;26.87;12.50;;;;;;;19.97;61.78;95940.38;4965799;28;20683;-68
2023/09/12 04:39:50;;;;;;;18.33;11.63;;;;;;;20.00;61.77;95933.94;4966025;28;20236;-67
2023/09/12 04:42:15;;;;;;;21.80;11.93;;;;;;;19.98;61.82;95934.06;4965252;28;20560;-68
2023/09/12 04:44:41;;;;;;;18.83;10.07;;;;;;;20.52;62.29;95929.22;4964877;28;20284;-66
2023/09/12 04:47:08;;;;;;;32.83;13.23;;;;;;;20.92;60.31;95930.91;4964274;28;20193;-67
2023/09/12 04:49:33;;;;;;;15.70;12.40;;;;;;;20.99;59.71;95931.19;4965454;28;20424;-67
2023/09/12 04:51:59;;;;;;;17.90;11.97;;;;;;;21.11;59.83;95940.72;4965444;28;20421;-67
2023/09/12 04:54:25;;;;;;;14.03;10.40;;;;;;;21.24;61.87;95935.94;4965397;28;20170;-67
2023/09/12 04:56:50;;;;;;;17.03;10.87;;;;;;;20.92;59.60;95942.44;4965748;28;21122;-67
2023/09/12 04:59:15;;;;;;;36.63;14.30;;;;;;;21.01;59.79;95930.06;4965799;28;20184;-67
2023/09/12 05:01:41;;;;;;;18.17;12.50;;;;;;;21.13;59.28;95934.25;4964367;28;20181;-67
2023/09/12 05:04:06;;;;;;;34.63;13.57;;;;;;;21.06;58.85;95934.97;4965195;28;21122;-68
2023/09/12 05:06:32;;;;;;;43.37;15.80;;;;;;;20.79;60.23;95935.69;4968905;28;20204;-67
2023/09/12 05:08:57;;;;;;;22.63;12.17;;;;;;;20.77;61.29;95935.88;4969706;28;20169;-67
2023/09/12 05:11:23;;;;;;;25.10;12.73;;;;;;;20.83;60.51;95937.94;4969139;28;20173;-68
2023/09/12 05:13:49;;;;;;;19.53;12.50;;;;;;;20.84;59.52;95942.31;4968873;28;20171;-67
2023/09/12 05:16:15;;;;;;;15.30;11.60;;;;;;;20.80;59.62;95948.91;4969168;28;20483;-67
2023/09/12 05:18:40;;;;;;;13.37;11.70;;;;;;;20.79;59.70;95944.56;4969170;28;20178;-67
2023/09/12 05:21:05;;;;;;;18.30;13.40;;;;;;;20.96;59.51;95944.84;4969629;28;20178;-68
2023/09/12 05:23:31;;;;;;;14.10;11.20;;;;;;;21.00;59.24;95947.06;4968549;28;20185;-67
2023/09/12 05:25:56;;;;;;;21.00;12.20;;;;;;;20.81;60.21;95936.41;4969007;28;20238;-67
2023/09/12 05:28:22;;;;;;;18.13;13.03;;;;;;;20.90;60.20;95939.06;4969332;28;20612;-67
2023/09/12 05:30:47;;;;;;;22.77;16.13;;;;;;;21.01;59.60;95939.91;4969146;28;20177;-67
2023/09/12 05:33:13;;;;;;;15.70;13.27;;;;;;;21.11;59.72;95943.38;4968761;28;20186;-67
2023/09/12 05:35:38;;;;;;;13.23;11.90;;;;;;;21.50;58.75;95941.50;4969026;28;20201;-67
2023/09/12 05:38:04;;;;;;;15.80;12.50;;;;;;;21.92;57.15;95945.50;4970861;28;20204;-67
2023/09/12 05:40:29;;;;;;;14.73;12.53;;;;;;;22.69;54.67;95943.38;4965612;28;20182;-67
2023/09/12 05:42:54;;;;;;;15.63;12.37;;;;;;;23.23;52.59;95936.97;4968275;28;20591;-67
2023/09/12 05:45:20;;;;;;;22.10;14.67;;;;;;;23.83;50.73;95932.63;4973897;28;20247;-67
2023/09/12 05:47:45;;;;;;;16.73;13.13;;;;;;;24.47;48.93;95923.16;4967116;28;20205;-67
2023/09/12 05:50:11;;;;;;;28.10;14.83;;;;;;;24.90;47.65;95925.72;4954523;28;20193;-67
2023/09/12 05:52:37;;;;;;;25.03;13.50;;;;;;;25.08;47.12;95933.56;4969679;28;20186;-66
2023/09/12 05:55:04;;;;;;;55.40;15.17;;;;;;;25.66;45.58;95928.97;4963152;28;20236;-66
2023/09/12 05:57:33;;;;;;;36.43;15.23;;;;;;;26.05;44.59;95929.00;4968056;28;20740;-66
2023/09/12 05:59:59;;;;;;;24.07;12.40;;;;;;;26.24;44.19;95937.66;4972694;28;20446;-66
2023/09/12 06:02:25;;;;;;;23.03;13.30;;;;;;;26.51;43.67;95934.50;4971525;28;20436;-66
2023/09/12 06:04:51;;;;;;;24.40;16.27;;;;;;;27.28;41.81;95932.78;4966848;28;20522;-66
2023/09/12 06:07:17;;;;;;;20.73;13.70;;;;;;;27.59;40.67;95929.94;4979678;28;20231;-66
2023/09/12 06:09:42;;;;;;;18.27;12.30;;;;;;;27.47;40.97;95937.63;4970259;28;20519;-66
2023/09/12 06:12:07;;;;;;;17.30;12.33;;;;;;;26.91;41.86;95942.50;4968851;28;20191;-66
2023/09/12 06:14:33;;;;;;;27.57;12.10;;;;;;;27.56;40.64;95941.09;4967750;28;20192;-66
2023/09/12 06:16:58;;;;;;;19.30;13.10;;;;;;;27.81;40.28;95945.19;4968047;28;20567;-66
2023/09/12 06:19:24;;;;;;;17.10;12.37;;;;;;;27.85;40.06;95949.22;4971302;28;20223;-66
2023/09/12 06:21:50;;;;;;;19.90;12.03;;;;;;;27.99;39.62;95942.16;4979830;28;20188;-66
2023/09/12 06:24:17;;;;;;;20.53;13.30;;;;;;;27.73;40.02;95942.56;4969012;28;20460;-66
2023/09/12 06:26:43;;;;;;;35.77;13.77;;;;;;;27.83;40.04;95937.78;4970116;28;20188;-67
2023/09/12 06:29:08;;;;;;;19.73;12.40;;;;;;;27.61;40.66;95938.66;4969804;28;20427;-67
2023/09/12 06:31:35;;;;;;;17.80;11.40;;;;;;;27.28;41.47;95940.84;4970167;28;20304;-67
2023/09/12 06:34:00;;;;;;;20.00;13.00;;;;;;;27.02;41.63;95933.97;4969408;28;20196;-67
2023/09/12 06:36:29;;;;;;;17.03;12.67;;;;;;;27.30;41.51;95938.81;4971037;28;20444;-67
2023/09/12 06:38:55;;;;;;;42.90;14.20;;;;;;;26.99;41.60;95939.72;4972035;28;20169;-67
2023/09/12 06:41:21;;;;;;;25.73;14.63;;;;;;;26.81;42.31;95948.97;4977917;28;20858;-67
2023/09/12 06:43:47;;;;;;;22.33;13.47;;;;;;;26.72;42.40;95941.97;4977342;28;20518;-67
2023/09/12 06:46:12;;;;;;;18.60;13.27;;;;;;;26.94;42.22;95947.50;4976109;28;20871;-67
2023/09/12 06:48:38;;;;;;;20.00;12.57;;;;;;;27.02;42.24;95942.06;4977824;28;20169;-67
2023/09/12 06:51:09;;;;;;;18.20;12.57;;;;;;;27.06;41.96;95940.69;4973001;28;20641;-68
2023/09/12 06:53:36;;;;;;;21.23;12.57;;;;;;;27.07;42.02;95939.66;4970321;28;20631;-68
2023/09/12 06:56:01;;;;;;;23.13;12.70;;;;;;;27.27;41.79;95949.97;4971537;28;20416;-68
2023/09/12 06:58:27;;;;;;;20.97;11.93;;;;;;;27.16;42.07;95953.88;4972002;28;20439;-68
2023/09/12 07:00:52;;;;;;;19.57;11.33;;;;;;;27.26;41.79;95956.34;4968667;28;20181;-68
2023/09/12 07:03:17;;;;;;;24.30;12.97;;;;;;;27.44;41.22;95949.63;4953669;28;20245;-69
2023/09/12 07:05:43;;;;;;;19.00;12.73;;;;;;;27.82;40.81;95948.72;4954197;29;20285;-68
2023/09/12 07:08:09;;;;;;;24.53;14.27;;;;;;;27.77;41.13;95949.28;4952727;28;20196;-68
2023/09/12 07:10:35;;;;;;;18.10;12.33;;;;;;;27.73;41.27;95944.44;4961063;28;20296;-70
2023/09/12 07:13:01;;;;;;;20.40;11.83;;;;;;;27.89;40.87;95946.97;4970029;28;20926;-69
2023/09/12 07:15:27;;;;;;;23.47;11.77;;;;;;;27.87;41.08;95949.03;4970373;28;20655;-67
2023/09/12 07:17:52;;;;;;;15.17;10.80;;;;;;;27.57;41.48;95958.94;4969797;28;20506;-69
2023/09/12 07:20:19;;;;;;;15.53;11.73;;;;;;;27.33;42.29;95949.22;4968916;28;20218;-67
2023/09/12 07:22:46;;;;;;;16.07;11.67;;;;;;;27.57;41.94;95962.47;4967231;28;20173;-69
2023/09/12 07:25:13;;;;;;;13.47;12.20;;;;;;;27.85;41.48;95957.31;4967839;28;20491;-67
2023/09/12 07:27:39;;;;;;;18.40;11.07;;;;;;;27.99;41.18;95962.88;4968506;28;20443;-66
2023/09/12 07:30:07;;;;;;;19.77;11.17;;;;;;;28.13;40.83;95953.09;4967128;28;20425;-66
2023/09/12 07:32:33;;;;;;;16.97;11.50;;;;;;;28.12;40.51;95951.44;4968949;28;20169;-67
2023/09/12 07:34:58;;;;;;;14.10;11.10;;;;;;;28.24;40.88;95960.72;4967592;28;20458;-67
2023/09/12 07:37:23;;;;;;;18.43;12.27;;;;;;;28.51;40.21;95956.50;4967561;28;20205;-68
2023/09/12 07:39:49;;;;;;;14.07;11.73;;;;;;;28.48;40.20;95965.00;4968899;28;20189;-66
2023/09/12 07:42:14;;;;;;;14.70;11.70;;;;;;;28.02;41.23;95959.84;4968632;28;20559;-68
2023/09/12 07:44:40;;;;;;;13.03;11.70;;;;;;;27.32;42.57;95975.34;4967588;28;20240;-68
2023/09/12 07:47:05;;;;;;;14.93;12.20;;;;;;;27.12;43.12;95960.66;4968334;28;20332;-69
2023/09/12 07:49:31;;;;;;;16.53;12.63;;;;;;;27.41;42.66;95965.31;4968143;28;20173;-69
2023/09/12 07:51:57;;;;;;;12.60;11.00;;;;;;;27.33;42.95;95973.47;4967253;28;20263;-67
2023/09/12 07:54:22;;;;;;;15.20;12.07;;;;;;;27.42;42.64;95969.69;4967654;28;20176;-69
2023/09/12 07:56:48;;;;;;;17.57;12.70;;;;;;;27.64;42.33;95974.19;4964866;28;20453;-68
2023/09/12 07:59:14;;;;;;;19.40;12.67;;;;;;;28.02;41.57;95968.75;4968733;28;20184;-67
2023/09/12 08:01:40;;;;;;;13.30;11.90;;;;;;;28.41;40.62;95967.56;4967828;28;20274;-67
2023/09/12 08:04:05;;;;;;;15.20;11.90;;;;;;;28.48;40.85;95970.41;4965916;28;20459;-68
2023/09/12 08:06:31;;;;;;;17.03;11.93;;;;;;;28.74;40.02;95975.25;4967295;28;20254;-67
2023/09/12 08:08:57;;;;;;;14.00;11.20;;;;;;;28.98;39.53;95968.63;4968005;28;20200;-68
2023/09/12 08:11:22;;;;;;;20.07;12.13;;;;;;;29.36;39.07;95967.56;4966950;28;20428;-68
2023/09/12 08:13:50;;;;;;;22.67;12.60;;;;;;;29.22;39.25;95964.75;4966826;28;20674;-68
2023/09/12 08:16:16;;;;;;;15.13;12.03;;;;;;;29.26;39.63;95962.50;4967458;28;20895;-69
2023/09/12 08:18:42;;;;;;;18.77;12.87;;;;;;;29.37;39.08;95974.66;4968000;28;20516;-67
2023/09/12 08:21:07;;;;;;;12.27;10.93;;;;;;;29.41;39.06;95968.66;4965704;28;20208;-68
2023/09/12 08:23:33;;;;;;;13.27;12.03;;;;;;;29.37;39.25;95964.66;4966636;28;20188;-69
2023/09/12 08:25:58;;;;;;;16.43;14.17;;;;;;;29.29;39.67;95965.66;4970655;28;20265;-68
2023/09/12 08:28:24;;;;;;;14.70;12.83;;;;;;;29.33;39.58;95963.38;4965902;28;20259;-67
2023/09/12 08:30:49;;;;;;;24.40;13.00;;;;;;;29.23;40.62;95958.31;4965321;28;20179;-68
2023/09/12 08:33:15;;;;;;;20.90;13.10;;;;;;;29.44;39.61;95960.16;4966404;28;20933;-68
2023/09/12 08:35:40;;;;;;;13.53;11.67;;;;;;;29.57;39.52;95964.81;4965954;28;20268;-68
2023/09/12 08:38:06;;;;;;;24.47;12.93;;;;;;;29.72;38.97;95952.06;4965151;28;20803;-68
2023/09/12 08:40:33;;;;;;;19.17;12.27;;;;;;;29.68;39.34;95958.06;4964932;28;20220;-69
2023/09/12 08:42:59;;;;;;;16.27;13.80;;;;;;;29.97;39.42;95963.22;4965105;28;20239;-66
2023/09/12 08:45:24;;;;;;;13.23;11.70;;;;;;;30.08;38.78;95961.03;4966457;28;20472;-67
2023/09/12 08:47:52;;;;;;;22.13;12.10;;;;;;;30.28;38.52;95955.72;4966212;28;20670;-69
2023/09/12 08:50:20;;;;;;;21.80;13.17;;;;;;;30.05;38.84;95958.69;4966370;28;20181;-69
2023/09/12 08:52:47;;;;;;;18.13;12.27;;;;;;;30.33;38.41;95958.66;4966636;28;20430;-68
2023/09/12 08:55:13;;;;;;;15.23;12.60;;;;;;;30.28;38.78;95961.13;4966436;28;20405;-70
2023/09/12 08:57:40;;;;;;;13.87;11.83;;;;;;;30.55;38.26;95959.38;4967008;28;20438;-70
2023/09/12 09:00:08;;;;;;;15.20;13.50;;;;;;;30.21;38.82;95962.94;4967752;28;20191;-70
2023/09/12 09:02:38;;;;;;;20.37;12.90;;;;;;;30.10;39.19;95954.38;4967564;28;20415;-69
2023/09/12 09:05:05;;;;;;;22.80;12.30;;;;;;;30.03;38.98;95952.66;4965951;28;20460;-68
2023/09/12 09:07:35;;;;;;;16.47;13.63;;;;;;;30.17;38.78;95962.53;4966351;28;20436;-68
2023/09/12 09:10:04;;;;;;;22.30;12.80;;;;;;;30.08;39.18;95955.59;4966895;28;20468;-67
2023/09/12 09:12:30;;;;;;;18.43;11.87;;;;;;;30.35;38.75;95964.72;4966911;28;20409;-68
2023/09/12 09:14:55;;;;;;;15.47;13.10;;;;;;;30.44;38.96;95954.53;4965933;28;20491;-68
2023/09/12 09:17:21;;;;;;;12.93;11.83;;;;;;;30.58;38.58;95959.78;4967035;28;20574;-68
2023/09/12 09:19:47;;;;;;;16.40;13.33;;;;;;;30.55;38.47;95952.09;4967347;28;20173;-69
2023/09/12 09:22:13;;;;;;;16.97;13.00;;;;;;;30.31;39.21;95955.34;4966796;28;20172;-69
2023/09/12 09:24:38;;;;;;;14.00;12.57;;;;;;;30.65;38.17;95945.44;4966082;28;20522;-69
2023/09/12 09:27:04;;;;;;;13.07;11.67;;;;;;;30.94;37.59;95942.41;4966762;28;20593;-68
2023/09/12 09:29:31;;;;;;;11.63;10.43;;;;;;;31.37;37.03;95947.47;4967273;28;20179;-69
2023/09/12 09:31:59;;;;;;;13.77;11.47;;;;;;;31.42;37.09;95950.41;4966764;28;20177;-69
2023/09/12 09:34:27;;;;;;;18.97;10.83;;;;;;;31.54;36.68;95956.03;4966466;28;20507;-69
2023/09/12 09:36:56;;;;;;;13.63;12.43;;;;;;;31.49;36.74;95944.13;4966642;28;20431;-69
2023/09/12 09:39:31;;;;;;;18.10;12.30;;;;;;;31.32;37.46;95944.53;4968197;28;20825;-67
2023/09/12 09:41:57;;;;;;;19.50;12.60;;;;;;;31.10;37.54;95940.34;4967349;28;20528;-69
2023/09/12 09:44:28;;;;;;;15.47;11.70;;;;;;;30.93;38.53;95937.22;4966621;28;20508;-68
2023/09/12 09:47:03;;;;;;;14.10;11.97;;;;;;;31.04;38.51;95933.03;4966642;28;20863;-71
2023/09/12 09:49:31;;;;;;;16.30;12.33;;;;;;;31.26;38.05;95933.69;4966735;28;20411;-68
2023/09/12 09:51:58;;;;;;;17.00;12.77;;;;;;;31.26;37.71;95929.09;4969118;28;20418;-69
2023/09/12 09:54:25;;;;;;;17.80;12.13;;;;;;;31.20;38.13;95930.75;4969871;28;20430;-68
2023/09/12 09:56:54;;;;;;;14.37;12.97;;;;;;;30.89;39.07;95934.06;4970407;28;20435;-69
2023/09/12 09:59:27;;;;;;;13.87;11.10;;;;;;;31.14;38.24;95925.34;4970641;28;20423;-67
2023/09/12 10:01:57;;;;;;;16.30;11.40;;;;;;;31.09;38.58;95919.69;4970815;28;20412;-68
2023/09/12 10:04:23;;;;;;;14.87;13.33;;;;;;;30.51;39.55;95920.19;4969722;28;20467;-68
2023/09/12 10:06:49;;;;;;;19.53;12.33;;;;;;;30.48;39.71;95926.88;4969954;28;20792;-69
2023/09/12 10:09:16;;;;;;;15.23;12.40;;;;;;;30.78;38.75;95921.94;4970451;28;20420;-68
2023/09/12 10:11:44;;;;;;;29.63;12.73;;;;;;;31.16;38.32;95915.97;4971864;28;20260;-68
2023/09/12 10:14:12;;;;;;;14.80;12.40;;;;;;;31.42;37.74;95912.44;4969220;28;20462;-69
2023/09/12 10:16:47;;;;;;;15.77;12.77;;;;;;;31.41;37.34;95910.75;4970004;28;20562;-69
2023/09/12 10:19:17;;;;;;;14.13;11.30;;;;;;;31.39;37.46;95906.56;4970172;28;20436;-68
2023/09/12 10:21:48;;;;;;;17.93;12.90;;;;;;;31.46;37.16;95910.13;4969528;28;20418;-69
2023/09/12 10:24:14;;;;;;;14.53;12.57;;;;;;;31.56;37.03;95901.56;4968992;28;20616;-69
2023/09/12 10:26:43;;;;;;;14.93;11.13;;;;;;;31.55;36.67;95908.03;4969790;28;20505;-69
2023/09/12 10:29:10;;;;;;;23.30;12.30;;;;;;;31.57;36.23;95895.94;4969977;28;20201;-68
2023/09/12 10:31:36;;;;;;;18.30;11.43;;;;;;;31.55;35.97;95898.03;4969831;28;20416;-69
2023/09/12 10:34:03;;;;;;;15.60;11.17;;;;;;;31.68;36.07;95899.91;4968709;28;20407;-68
2023/09/12 10:36:29;;;;;;;11.47;10.33;;;;;;;31.70;35.57;95892.34;4967677;28;20264;-69
2023/09/12 10:38:55;;;;;;;12.67;11.43;;;;;;;31.48;35.96;95889.06;4969792;28;20499;-68
2023/09/12 10:41:22;;;;;;;16.13;9.13;;;;;;;31.67;35.93;95887.34;4969944;28;20499;-68
2023/09/12 10:43:50;;;;;;;12.50;10.50;;;;;;;31.64;35.45;95883.19;4968317;28;20224;-68
2023/09/12 10:46:16;;;;;;;14.33;9.93;;;;;;;31.74;34.44;95882.75;4969080;28;20432;-68
2023/09/12 10:48:42;;;;;;;18.43;10.37;;;;;;;31.88;34.06;95869.16;4969701;28;20463;-66
2023/09/12 10:51:09;;;;;;;18.50;12.67;;;;;;;31.71;35.56;95883.19;4970110;28;20542;-69
2023/09/12 10:53:35;;;;;;;11.90;10.00;;;;;;;31.70;35.89;95881.50;4983927;28;20169;-69
2023/09/12 10:56:07;;;;;;;13.63;10.80;;;;;;;31.78;35.90;95884.00;4981510;28;20417;-69
2023/09/12 10:58:32;;;;;;;10.67;9.57;;;;;;;31.84;35.96;95875.03;4979997;28;20172;-69
2023/09/12 11:01:24;;;;;;;11.80;10.80;;;;;;;31.79;35.61;95882.94;4973320;28;20909;-67
2023/09/12 11:03:50;;;;;;;18.20;10.30;;;;;;;31.85;35.66;95878.56;4948364;28;20206;-67
2023/09/12 11:06:31;;;;;;;16.47;10.10;;;;;;;32.03;35.00;95876.03;4950085;28;20288;-68
2023/09/12 11:09:26;;;;;;;11.07;9.80;;;;;;;31.60;35.52;95872.97;4969486;28;20196;-68
2023/09/12 11:11:56;;;;;;;10.50;8.80;;;;;;;31.86;35.54;95877.50;4970847;28;20456;-66
2023/09/12 11:14:23;;;;;;;16.90;9.77;;;;;;;31.43;36.24;95873.44;4968989;28;20181;-68
2023/09/12 11:17:07;;;;;;;16.27;11.00;;;;;;;31.57;34.98;95878.84;4970561;28;20439;-68